createdAt,value
2022-12-08T00:03:28.557Z,3.66
2022-12-08T00:09:40.161Z,3.67
2022-12-08T00:15:42.094Z,3.67
2022-12-08T00:21:43.971Z,3.73
2022-12-08T00:27:49.014Z,3.67
2022-12-08T00:33:50.892Z,3.71
2022-12-08T00:40:02.587Z,3.80
2022-12-08T00:46:04.900Z,3.63
2022-12-08T00:52:13.228Z,3.58
2022-12-08T00:58:15.161Z,3.66
2022-12-08T01:04:25.732Z,3.58
2022-12-08T01:10:27.595Z,3.74
2022-12-08T01:16:33.224Z,3.69
2022-12-08T01:22:36.151Z,3.60
2022-12-08T01:28:46.430Z,3.55
2022-12-08T01:34:48.362Z,3.56
2022-12-08T01:40:50.458Z,3.67
2022-12-08T01:46:55.873Z,3.61
2022-12-08T01:53:10.841Z,3.46
2022-12-08T01:59:12.993Z,3.39
2022-12-08T02:05:16.564Z,3.40
2022-12-08T02:11:18.819Z,3.20
2022-12-08T02:18:02.974Z,3.24
2022-12-08T02:24:36.937Z,3.25
2022-12-08T02:30:54.601Z,3.40
2022-12-08T02:37:34.082Z,3.50
2022-12-08T02:43:44.208Z,3.50
2022-12-08T02:49:46.754Z,3.49
2022-12-08T02:56:10.191Z,3.53
2022-12-08T03:02:24.172Z,3.61
2022-12-08T03:08:57.246Z,3.54
2022-12-08T03:15:06.976Z,3.49
2022-12-08T03:21:10.545Z,3.55
2022-12-08T03:27:20.956Z,3.56
2022-12-08T03:33:41.207Z,3.51
2022-12-08T03:39:47.350Z,3.39
2022-12-08T03:45:49.220Z,3.38
2022-12-08T03:51:51.264Z,3.35
2022-12-08T03:57:53.117Z,3.41
2022-12-08T04:04:04.373Z,3.43
2022-12-08T04:10:07.480Z,3.50
2022-12-08T04:16:23.906Z,3.52
2022-12-08T04:22:25.890Z,3.64
2022-12-08T04:28:31.400Z,3.58
2022-12-08T04:34:33.903Z,3.69
2022-12-08T04:40:35.793Z,3.59
2022-12-08T04:46:43.186Z,3.70
2022-12-08T04:52:50.586Z,3.64
2022-12-08T04:58:52.843Z,3.80
2022-12-08T05:04:54.731Z,3.50
2022-12-08T05:11:14.323Z,3.43
2022-12-08T05:17:18.298Z,3.39
2022-12-08T05:23:20.194Z,3.34
2022-12-08T05:29:22.083Z,3.43
2022-12-08T05:35:23.972Z,3.41
2022-12-08T05:41:25.955Z,3.28
2022-12-08T05:47:30.733Z,3.31
2022-12-08T05:59:52.274Z,3.23
2022-12-08T06:05:54.158Z,3.26
2022-12-08T06:11:56.042Z,3.29
2022-12-08T06:17:59.982Z,3.38
2022-12-08T06:24:01.882Z,3.29
2022-12-08T06:30:04.971Z,3.26
2022-12-08T06:36:07.650Z,3.27
2022-12-08T06:42:28.373Z,3.25
2022-12-08T06:48:30.320Z,3.41
2022-12-08T06:54:32.224Z,3.47
2022-12-08T07:00:34.191Z,3.71
2022-12-08T07:06:36.095Z,3.49
2022-12-08T07:12:38.067Z,3.65
2022-12-08T07:18:40.046Z,3.55
2022-12-08T07:24:42.059Z,3.73
2022-12-08T07:30:44.023Z,3.68
2022-12-08T07:36:45.949Z,3.77
2022-12-08T07:42:50.618Z,3.75
2022-12-08T07:48:55.016Z,3.74
2022-12-08T07:54:56.880Z,3.89
2022-12-08T08:00:58.875Z,3.73
2022-12-08T08:07:00.849Z,3.83
2022-12-08T08:13:03.087Z,3.94
2022-12-08T08:19:04.991Z,3.79
2022-12-08T08:25:07.322Z,3.79
2022-12-08T08:31:09.364Z,3.86
2022-12-08T08:37:11.444Z,4.04
2022-12-08T08:43:32.916Z,3.98
2022-12-08T08:49:38.135Z,4.08
2022-12-08T08:55:40.238Z,3.97
2022-12-08T09:01:42.250Z,4.08
2022-12-08T09:07:44.263Z,4.14
2022-12-08T09:13:55.438Z,4.07
2022-12-08T09:19:57.373Z,4.10
2022-12-08T09:26:06.538Z,4.14
2022-12-08T09:32:08.418Z,4.10
2022-12-08T09:38:10.316Z,3.87
2022-12-08T09:45:09.903Z,3.72
2022-12-08T09:51:25.378Z,3.78
2022-12-08T09:57:27.879Z,3.65
2022-12-08T10:03:34.356Z,3.69
2022-12-08T10:10:07.622Z,3.70
2022-12-08T10:16:26.545Z,3.64
2022-12-08T10:22:39.834Z,3.71
2022-12-08T10:28:45.832Z,3.70
2022-12-08T10:35:14.434Z,3.69
2022-12-08T10:41:18.225Z,3.53
2022-12-08T10:47:23.233Z,3.88
2022-12-08T10:53:32.161Z,3.77
2022-12-08T10:59:34.566Z,3.73
2022-12-08T11:05:36.878Z,3.64
2022-12-08T11:11:51.379Z,3.69
2022-12-08T11:18:24.076Z,3.67
2022-12-08T11:24:32.273Z,3.68
2022-12-08T11:30:51.059Z,3.83
2022-12-08T11:36:55.257Z,3.88
2022-12-08T11:43:11.352Z,3.78
2022-12-08T11:49:14.551Z,3.92
2022-12-08T11:55:38.794Z,3.89
2022-12-08T12:01:42.849Z,4.13
2022-12-08T12:08:35.091Z,4.38
2022-12-08T12:15:16.773Z,4.34
2022-12-08T12:21:26.126Z,4.45
2022-12-08T12:27:40.533Z,4.54
2022-12-08T12:33:46.188Z,4.51
2022-12-08T12:40:01.009Z,4.61
2022-12-08T12:46:27.696Z,4.64
2022-12-08T12:52:32.308Z,4.81
2022-12-08T12:58:37.135Z,4.55
2022-12-08T13:04:39.187Z,4.29
2022-12-08T13:11:09.910Z,4.37
2022-12-08T13:17:16.279Z,4.40
2022-12-08T13:23:43.008Z,4.46
2022-12-08T13:29:53.584Z,4.57
2022-12-08T13:36:25.930Z,4.79
2022-12-08T13:43:15.180Z,4.51
2022-12-08T14:02:48.003Z,4.56
2022-12-08T14:09:10.827Z,4.47
2022-12-08T14:15:15.678Z,4.40
2022-12-08T14:21:21.806Z,4.43
2022-12-08T14:27:37.179Z,4.18
2022-12-08T14:33:40.558Z,4.21
2022-12-08T14:39:42.705Z,4.18
2022-12-08T14:45:44.535Z,4.20
2022-12-08T14:51:49.531Z,4.23
2022-12-08T14:57:51.536Z,4.22
2022-12-08T15:03:55.601Z,4.16
2022-12-08T15:10:33.302Z,4.17
2022-12-08T15:16:44.399Z,4.04
2022-12-08T15:22:46.400Z,4.02
2022-12-08T15:28:48.294Z,3.95
2022-12-08T15:34:50.520Z,4.03
2022-12-08T15:40:53.886Z,3.94
2022-12-08T15:46:56.433Z,3.90
2022-12-08T15:53:01.677Z,3.79
2022-12-08T15:59:03.561Z,3.75
2022-12-08T16:12:08.386Z,3.73
2022-12-08T16:18:24.895Z,3.73
2022-12-08T16:24:26.866Z,3.68
2022-12-08T16:30:31.429Z,3.62
2022-12-08T16:36:33.635Z,3.61
2022-12-08T16:42:45.862Z,3.49
2022-12-08T16:48:47.834Z,3.35
2022-12-08T16:54:49.800Z,3.25
2022-12-08T17:00:51.784Z,3.21
2022-12-08T17:06:53.788Z,2.95
2022-12-08T17:12:56.531Z,2.90
2022-12-08T17:18:58.843Z,2.93
2022-12-08T17:25:02.514Z,2.99
2022-12-08T17:31:10.583Z,3.03
2022-12-08T17:37:12.865Z,3.07
2022-12-08T17:43:15.567Z,3.13
2022-12-08T17:49:22.113Z,3.09
2022-12-08T17:55:24.005Z,3.14
2022-12-08T18:01:27.891Z,3.09
2022-12-08T18:07:30.061Z,3.07
2022-12-08T18:13:34.980Z,3.13
2022-12-08T18:19:37.005Z,3.18
2022-12-08T18:25:38.909Z,3.24
2022-12-08T18:37:56.749Z,3.13
2022-12-08T18:43:58.711Z,3.09
2022-12-08T18:50:00.726Z,3.08
2022-12-08T18:56:03.959Z,3.10
2022-12-08T19:02:06.185Z,3.18
2022-12-08T19:08:31.711Z,3.10
2022-12-08T19:14:37.190Z,3.13
2022-12-08T19:20:39.155Z,3.09
2022-12-08T19:26:41.279Z,3.03
2022-12-08T19:32:43.270Z,3.12
2022-12-08T19:39:04.140Z,2.95
2022-12-08T19:45:21.462Z,2.77
2022-12-08T19:51:23.511Z,2.83
2022-12-08T19:57:25.420Z,2.80
2022-12-08T20:03:27.432Z,2.92
2022-12-08T20:09:33.012Z,2.90
2022-12-08T20:15:34.971Z,2.68
2022-12-08T20:21:36.929Z,2.72
2022-12-08T20:27:38.858Z,2.74
2022-12-08T20:33:40.773Z,2.68
2022-12-08T20:39:42.673Z,2.57
2022-12-08T20:45:44.814Z,2.49
2022-12-08T20:51:46.944Z,2.55
2022-12-08T20:57:48.864Z,2.62
2022-12-08T21:03:51.919Z,2.51
2022-12-08T21:09:54.781Z,2.58
2022-12-08T21:15:57.211Z,2.49
2022-12-08T21:21:59.206Z,2.45
2022-12-08T21:28:01.285Z,2.42
2022-12-08T21:34:13.128Z,2.34
2022-12-08T21:40:15.338Z,2.16
2022-12-08T21:46:27.358Z,2.29
2022-12-08T21:52:29.443Z,2.29
2022-12-08T21:58:32.718Z,2.32
2022-12-08T22:04:35.361Z,2.38
2022-12-08T22:10:38.405Z,2.48
2022-12-08T22:16:40.416Z,2.56
2022-12-08T22:22:42.820Z,2.61
2022-12-08T22:28:45.226Z,2.59
2022-12-08T22:34:47.390Z,2.60
2022-12-08T22:40:49.313Z,2.56
2022-12-08T22:46:51.276Z,2.58
2022-12-08T22:52:56.290Z,2.58
2022-12-08T22:58:58.530Z,2.36
2022-12-08T23:05:00.620Z,2.32
2022-12-08T23:11:02.941Z,2.36
2022-12-08T23:17:04.984Z,2.40
2022-12-08T23:23:07.043Z,2.26
2022-12-08T23:29:09.104Z,2.21
2022-12-08T23:35:11.159Z,1.94
2022-12-08T23:41:16.057Z,1.85
2022-12-08T23:47:18.491Z,1.87
2022-12-08T23:53:20.786Z,1.85
2022-12-08T23:59:22.967Z,2.11
